sensor_id;sensor_type;location;lat;lon;timestamp;pressure;altitude;pressure_sealevel;temperature;humidity
69667;BME280;66534;52.370;4.832;2023-03-04T00:00:13;102741.28;;;6.51;100.00
69667;BME280;66534;52.370;4.832;2023-03-04T00:00:44;102742.19;;;6.55;100.00
69667;BME280;66534;52.370;4.832;2023-03-04T00:01:16;102739.53;;;6.36;100.00
69667;BME280;66534;52.370;4.832;2023-03-04T00:01:47;102748.19;;;6.28;100.00
69667;BME280;66534;52.370;4.832;2023-03-04T00:02:19;102747.31;;;6.24;100.00
69667;BME280;66534;52.370;4.832;2023-03-04T00:02:49;102748.16;;;6.24;100.00
69667;BME280;66534;52.370;4.832;2023-03-04T00:03:20;102749.91;;;6.24;100.00
69667;BME280;66534;52.370;4.832;2023-03-04T00:03:50;102749.06;;;6.31;100.00
69667;BME280;66534;52.370;4.832;2023-03-04T00:04:21;102746.44;;;6.23;100.00
69667;BME280;66534;52.370;4.832;2023-03-04T00:04:51;102743.81;;;6.20;100.00
69667;BME280;66534;52.370;4.832;2023-03-04T00:05:22;102743.84;;;6.23;100.00
69667;BME280;66534;52.370;4.832;2023-03-04T00:05:52;102747.31;;;6.27;100.00
69667;BME280;66534;52.370;4.832;2023-03-04T00:06:23;102749.06;;;6.33;100.00
69667;BME280;66534;52.370;4.832;2023-03-04T00:06:53;102756.03;;;6.43;100.00
69667;BME280;66534;52.370;4.832;2023-03-04T00:07:24;102747.31;;;6.35;100.00
69667;BME280;66534;52.370;4.832;2023-03-04T00:07:54;102745.56;;;6.26;100.00
69667;BME280;66534;52.370;4.832;2023-03-04T00:08:24;102749.03;;;6.19;100.00
69667;BME280;66534;52.370;4.832;2023-03-04T00:08:55;102755.09;;;6.16;100.00
69667;BME280;66534;52.370;4.832;2023-03-04T00:09:26;102749.00;;;6.22;100.00
69667;BME280;66534;52.370;4.832;2023-03-04T00:09:56;102752.50;;;6.26;100.00
69667;BME280;66534;52.370;4.832;2023-03-04T00:10:26;102748.16;;;6.26;100.00
69667;BME280;66534;52.370;4.832;2023-03-04T00:10:57;102756.00;;;6.23;100.00
69667;BME280;66534;52.370;4.832;2023-03-04T00:11:27;102755.16;;;6.27;100.00
69667;BME280;66534;52.370;4.832;2023-03-04T00:11:58;102748.16;;;6.26;100.00
69667;BME280;66534;52.370;4.832;2023-03-04T00:12:28;102752.50;;;6.21;100.00
69667;BME280;66534;52.370;4.832;2023-03-04T00:12:59;102749.91;;;6.19;100.00
69667;BME280;66534;52.370;4.832;2023-03-04T00:13:29;102751.63;;;6.25;100.00
69667;BME280;66534;52.370;4.832;2023-03-04T00:14:00;102752.56;;;6.38;100.00
69667;BME280;66534;52.370;4.832;2023-03-04T00:14:30;102747.41;;;6.55;100.00
69667;BME280;66534;52.370;4.832;2023-03-04T00:15:01;102743.94;;;6.72;100.00
69667;BME280;66534;52.370;4.832;2023-03-04T00:15:31;102746.53;;;6.53;100.00
69667;BME280;66534;52.370;4.832;2023-03-04T00:16:02;102752.59;;;6.47;100.00
69667;BME280;66534;52.370;4.832;2023-03-04T00:16:32;102754.34;;;6.48;100.00
69667;BME280;66534;52.370;4.832;2023-03-04T00:17:03;102748.22;;;6.32;100.00
69667;BME280;66534;52.370;4.832;2023-03-04T00:17:33;102753.44;;;6.47;100.00
69667;BME280;66534;52.370;4.832;2023-03-04T00:18:04;102749.16;;;6.62;100.00
69667;BME280;66534;52.370;4.832;2023-03-04T00:18:34;102748.28;;;6.67;100.00
69667;BME280;66534;52.370;4.832;2023-03-04T00:19:05;102745.66;;;6.54;100.00
69667;BME280;66534;52.370;4.832;2023-03-04T00:19:35;102747.38;;;6.50;100.00
69667;BME280;66534;52.370;4.832;2023-03-04T00:20:06;102742.19;;;6.53;100.00
69667;BME280;66534;52.370;4.832;2023-03-04T00:20:37;102751.78;;;6.62;100.00
69667;BME280;66534;52.370;4.832;2023-03-04T00:21:08;102744.78;;;6.56;100.00
69667;BME280;66534;52.370;4.832;2023-03-04T00:21:38;102749.13;;;6.51;100.00
69667;BME280;66534;52.370;4.832;2023-03-04T00:22:09;102750.00;;;6.55;100.00
69667;BME280;66534;52.370;4.832;2023-03-04T00:22:39;102745.69;;;6.57;100.00
69667;BME280;66534;52.370;4.832;2023-03-04T00:23:10;102749.16;;;6.62;100.00
69667;BME280;66534;52.370;4.832;2023-03-04T00:23:40;102744.78;;;6.48;100.00
69667;BME280;66534;52.370;4.832;2023-03-04T00:24:12;102743.06;;;6.57;100.00
69667;BME280;66534;52.370;4.832;2023-03-04T00:24:43;102749.13;;;6.51;100.00
69667;BME280;66534;52.370;4.832;2023-03-04T00:25:13;102757.75;;;6.39;100.00
69667;BME280;66534;52.370;4.832;2023-03-04T00:25:44;102745.63;;;6.46;100.00
69667;BME280;66534;52.370;4.832;2023-03-04T00:26:15;102743.91;;;6.46;100.00
69667;BME280;66534;52.370;4.832;2023-03-04T00:26:46;102746.53;;;6.53;100.00
69667;BME280;66534;52.370;4.832;2023-03-04T00:27:16;102743.06;;;6.63;100.00
69667;BME280;66534;52.370;4.832;2023-03-04T00:27:47;102741.38;;;6.69;100.00
69667;BME280;66534;52.370;4.832;2023-03-04T00:28:17;102743.03;;;6.47;100.00
69667;BME280;66534;52.370;4.832;2023-03-04T00:28:48;102742.16;;;6.56;100.00
69667;BME280;66534;52.370;4.832;2023-03-04T00:29:19;102745.66;;;6.54;100.00
69667;BME280;66534;52.370;4.832;2023-03-04T00:29:51;102742.19;;;6.58;100.00
69667;BME280;66534;52.370;4.832;2023-03-04T00:30:21;102745.69;;;6.66;100.00
69667;BME280;66534;52.370;4.832;2023-03-04T00:30:51;102743.03;;;6.51;100.00
69667;BME280;66534;52.370;4.832;2023-03-04T00:31:22;102736.97;;;6.50;100.00
69667;BME280;66534;52.370;4.832;2023-03-04T00:31:53;102739.56;;;6.50;100.00
69667;BME280;66534;52.370;4.832;2023-03-04T00:32:23;102744.78;;;6.52;100.00
69667;BME280;66534;52.370;4.832;2023-03-04T00:32:54;102733.47;;;6.56;100.00
69667;BME280;66534;52.370;4.832;2023-03-04T00:33:24;102738.66;;;6.43;100.00
69667;BME280;66534;52.370;4.832;2023-03-04T00:33:54;102739.56;;;6.52;100.00
69667;BME280;66534;52.370;4.832;2023-03-04T00:34:25;102738.72;;;6.59;100.00
69667;BME280;66534;52.370;4.832;2023-03-04T00:34:55;102748.28;;;6.67;100.00
69667;BME280;66534;52.370;4.832;2023-03-04T00:35:26;102739.63;;;6.88;100.00
69667;BME280;66534;52.370;4.832;2023-03-04T00:35:56;102742.28;;;7.04;100.00
69667;BME280;66534;52.370;4.832;2023-03-04T00:36:27;102740.50;;;6.87;100.00
69667;BME280;66534;52.370;4.832;2023-03-04T00:36:57;102743.13;;;6.96;100.00
69667;BME280;66534;52.370;4.832;2023-03-04T00:37:30;102741.34;;;6.77;100.00
69667;BME280;66534;52.370;4.832;2023-03-04T00:38:00;102741.31;;;6.48;100.00
69667;BME280;66534;52.370;4.832;2023-03-04T00:38:31;102736.09;;;6.51;100.00
69667;BME280;66534;52.370;4.832;2023-03-04T00:39:01;102739.59;;;6.61;100.00
69667;BME280;66534;52.370;4.832;2023-03-04T00:39:33;102739.59;;;6.68;100.00
69667;BME280;66534;52.370;4.832;2023-03-04T00:40:03;102737.06;;;6.99;100.00
69667;BME280;66534;52.370;4.832;2023-03-04T00:40:34;102744.84;;;6.93;100.00
69667;BME280;66534;52.370;4.832;2023-03-04T00:41:05;102738.78;;;7.09;100.00
69667;BME280;66534;52.370;4.832;2023-03-04T00:41:35;102743.13;;;6.96;100.00
69667;BME280;66534;52.370;4.832;2023-03-04T00:42:05;102740.53;;;7.07;100.00
69667;BME280;66534;52.370;4.832;2023-03-04T00:42:36;102736.19;;;7.08;100.00
69667;BME280;66534;52.370;4.832;2023-03-04T00:43:06;102734.44;;;6.82;100.00
69667;BME280;66534;52.370;4.832;2023-03-04T00:43:37;102742.28;;;6.90;100.00
69667;BME280;66534;52.370;4.832;2023-03-04T00:44:07;102741.41;;;7.00;100.00
69667;BME280;66534;52.370;4.832;2023-03-04T00:44:38;102734.44;;;7.20;100.00
69667;BME280;66534;52.370;4.832;2023-03-04T00:45:08;102730.97;;;7.32;100.00
69667;BME280;66534;52.370;4.832;2023-03-04T00:45:39;102735.31;;;7.33;100.00
69667;BME280;66534;52.370;4.832;2023-03-04T00:46:09;102737.03;;;7.14;100.00
69667;BME280;66534;52.370;4.832;2023-03-04T00:46:40;102740.53;;;7.09;100.00
69667;BME280;66534;52.370;4.832;2023-03-04T00:47:10;102736.16;;;7.18;100.00
69667;BME280;66534;52.370;4.832;2023-03-04T00:47:41;102737.91;;;7.29;100.00
69667;BME280;66534;52.370;4.832;2023-03-04T00:48:11;102733.56;;;7.26;100.00
69667;BME280;66534;52.370;4.832;2023-03-04T00:48:42;102734.44;;;7.13;100.00
69667;BME280;66534;52.370;4.832;2023-03-04T00:49:12;102739.66;;;7.31;100.00
69667;BME280;66534;52.370;4.832;2023-03-04T00:49:42;102737.03;;;7.30;100.00
69667;BME280;66534;52.370;4.832;2023-03-04T00:50:13;102733.56;;;7.31;100.00
69667;BME280;66534;52.370;4.832;2023-03-04T00:50:44;102738.78;;;7.31;100.00
69667;BME280;66534;52.370;4.832;2023-03-04T00:51:14;102736.16;;;6.97;100.00
69667;BME280;66534;52.370;4.832;2023-03-04T00:51:45;102738.78;;;6.82;100.00
69667;BME280;66534;52.370;4.832;2023-03-04T00:52:15;102733.53;;;6.80;100.00
69667;BME280;66534;52.370;4.832;2023-03-04T00:52:46;102738.78;;;6.97;100.00
69667;BME280;66534;52.370;4.832;2023-03-04T00:53:16;102746.59;;;7.02;100.00
69667;BME280;66534;52.370;4.832;2023-03-04T00:53:47;102737.03;;;6.87;100.00
69667;BME280;66534;52.370;4.832;2023-03-04T00:54:17;102743.97;;;6.79;100.00
69667;BME280;66534;52.370;4.832;2023-03-04T00:54:48;102747.44;;;6.67;100.00
69667;BME280;66534;52.370;4.832;2023-03-04T00:55:18;102743.97;;;6.71;100.00
69667;BME280;66534;52.370;4.832;2023-03-04T00:55:49;102746.59;;;6.82;100.00
69667;BME280;66534;52.370;4.832;2023-03-04T00:56:19;102745.72;;;6.73;100.00
69667;BME280;66534;52.370;4.832;2023-03-04T00:56:50;102743.09;;;6.80;100.00
69667;BME280;66534;52.370;4.832;2023-03-04T00:57:20;102750.03;;;6.64;100.00
69667;BME280;66534;52.370;4.832;2023-03-04T00:57:51;102743.03;;;6.47;100.00
69667;BME280;66534;52.370;4.832;2023-03-04T00:58:21;102743.00;;;6.43;100.00
69667;BME280;66534;52.370;4.832;2023-03-04T00:58:54;102746.47;;;6.33;100.00
69667;BME280;66534;52.370;4.832;2023-03-04T00:59:27;102747.34;;;6.32;100.00
69667;BME280;66534;52.370;4.832;2023-03-04T00:59:58;102757.78;;;6.36;100.00
69667;BME280;66534;52.370;4.832;2023-03-04T01:00:29;102755.16;;;6.35;100.00
69667;BME280;66534;52.370;4.832;2023-03-04T01:00:59;102756.00;;;6.28;100.00
69667;BME280;66534;52.370;4.832;2023-03-04T01:01:30;102747.25;;;6.18;100.00
69667;BME280;66534;52.370;4.832;2023-03-04T01:02:01;102752.50;;;6.19;100.00
69667;BME280;66534;52.370;4.832;2023-03-04T01:02:32;102750.78;;;6.24;100.00
69667;BME280;66534;52.370;4.832;2023-03-04T01:03:02;102751.69;;;6.33;100.00
69667;BME280;66534;52.370;4.832;2023-03-04T01:03:33;102759.47;;;6.25;100.00
69667;BME280;66534;52.370;4.832;2023-03-04T01:04:03;102755.13;;;6.24;100.00
69667;BME280;66534;52.370;4.832;2023-03-04T01:04:34;102753.38;;;6.24;100.00
69667;BME280;66534;52.370;4.832;2023-03-04T01:05:05;102756.00;;;6.24;100.00
69667;BME280;66534;52.370;4.832;2023-03-04T01:05:36;102753.38;;;6.20;100.00
69667;BME280;66534;52.370;4.832;2023-03-04T01:06:06;102754.28;;;6.31;100.00
69667;BME280;66534;52.370;4.832;2023-03-04T01:06:37;102749.94;;;6.33;100.00
69667;BME280;66534;52.370;4.832;2023-03-04T01:07:08;102751.69;;;6.42;100.00
69667;BME280;66534;52.370;4.832;2023-03-04T01:07:38;102754.31;;;6.40;100.00
69667;BME280;66534;52.370;4.832;2023-03-04T01:08:09;102751.81;;;6.79;100.00
69667;BME280;66534;52.370;4.832;2023-03-04T01:08:39;102745.69;;;6.81;100.00
69667;BME280;66534;52.370;4.832;2023-03-04T01:09:10;102750.06;;;6.74;100.00
69667;BME280;66534;52.370;4.832;2023-03-04T01:09:40;102747.44;;;6.71;100.00
69667;BME280;66534;52.370;4.832;2023-03-04T01:10:12;102749.16;;;6.66;100.00
69667;BME280;66534;52.370;4.832;2023-03-04T01:10:43;102751.78;;;6.80;100.00
69667;BME280;66534;52.370;4.832;2023-03-04T01:11:14;102745.72;;;6.84;100.00
69667;BME280;66534;52.370;4.832;2023-03-04T01:11:44;102746.63;;;7.05;100.00
69667;BME280;66534;52.370;4.832;2023-03-04T01:12:15;102748.38;;;7.12;100.00
69667;BME280;66534;52.370;4.832;2023-03-04T01:12:45;102739.66;;;7.04;100.00
69667;BME280;66534;52.370;4.832;2023-03-04T01:13:16;102749.22;;;7.09;100.00
69667;BME280;66534;52.370;4.832;2023-03-04T01:13:47;102745.72;;;6.87;100.00
69667;BME280;66534;52.370;4.832;2023-03-04T01:14:18;102738.75;;;6.76;100.00
69667;BME280;66534;52.370;4.832;2023-03-04T01:14:48;102747.47;;;6.91;100.00
69667;BME280;66534;52.370;4.832;2023-03-04T01:15:19;102750.09;;;7.01;100.00
69667;BME280;66534;52.370;4.832;2023-03-04T01:15:49;102744.84;;;7.02;100.00
69667;BME280;66534;52.370;4.832;2023-03-04T01:16:20;102743.13;;;6.96;100.00
69667;BME280;66534;52.370;4.832;2023-03-04T01:16:51;102746.56;;;6.72;100.00
69667;BME280;66534;52.370;4.832;2023-03-04T01:17:22;102740.47;;;6.57;100.00
69667;BME280;66534;52.370;4.832;2023-03-04T01:17:52;102743.00;;;6.43;100.00
69667;BME280;66534;52.370;4.832;2023-03-04T01:18:23;102743.91;;;6.45;100.00
69667;BME280;66534;52.370;4.832;2023-03-04T01:18:54;102737.84;;;6.60;100.00
69667;BME280;66534;52.370;4.832;2023-03-04T01:19:24;102748.25;;;6.51;100.00
69667;BME280;66534;52.370;4.832;2023-03-04T01:19:55;102738.69;;;6.45;100.00
69667;BME280;66534;52.370;4.832;2023-03-04T01:20:25;102743.91;;;6.51;100.00
69667;BME280;66534;52.370;4.832;2023-03-04T01:20:56;102743.91;;;6.51;100.00
69667;BME280;66534;52.370;4.832;2023-03-04T01:21:27;102744.72;;;6.30;100.00
69667;BME280;66534;52.370;4.832;2023-03-04T01:21:57;102742.16;;;6.50;100.00
69667;BME280;66534;52.370;4.832;2023-03-04T01:22:28;102743.94;;;6.53;100.00
69667;BME280;66534;52.370;4.832;2023-03-04T01:22:58;102743.06;;;6.63;100.00
69667;BME280;66534;52.370;4.832;2023-03-04T01:23:29;102737.88;;;6.72;100.00
69667;BME280;66534;52.370;4.832;2023-03-04T01:23:59;102736.13;;;6.77;100.00
69667;BME280;66534;52.370;4.832;2023-03-04T01:24:29;102742.19;;;6.68;100.00
69667;BME280;66534;52.370;4.832;2023-03-04T01:25:00;102737.88;;;6.72;100.00
69667;BME280;66534;52.370;4.832;2023-03-04T01:25:30;102743.13;;;6.83;100.00
69667;BME280;66534;52.370;4.832;2023-03-04T01:26:01;102735.28;;;6.81;100.00
69667;BME280;66534;52.370;4.832;2023-03-04T01:26:32;102732.66;;;6.70;100.00
69667;BME280;66534;52.370;4.832;2023-03-04T01:27:02;102736.13;;;6.71;100.00
69667;BME280;66534;52.370;4.832;2023-03-04T01:27:33;102735.28;;;6.89;100.00
69667;BME280;66534;52.370;4.832;2023-03-04T01:28:03;102734.44;;;6.91;100.00
69667;BME280;66534;52.370;4.832;2023-03-04T01:28:34;102739.66;;;6.90;100.00
69667;BME280;66534;52.370;4.832;2023-03-04T01:29:04;102735.28;;;6.81;100.00
69667;BME280;66534;52.370;4.832;2023-03-04T01:29:35;102731.75;;;6.44;100.00
69667;BME280;66534;52.370;4.832;2023-03-04T01:30:05;102736.88;;;6.24;100.00
69667;BME280;66534;52.370;4.832;2023-03-04T01:30:36;102731.66;;;6.21;100.00
69667;BME280;66534;52.370;4.832;2023-03-04T01:31:07;102730.84;;;6.42;100.00
69667;BME280;66534;52.370;4.832;2023-03-04T01:31:37;102734.34;;;6.48;100.00
69667;BME280;66534;52.370;4.832;2023-03-04T01:32:08;102740.44;;;6.64;100.00
69667;BME280;66534;52.370;4.832;2023-03-04T01:32:38;102735.28;;;6.69;100.00
69667;BME280;66534;52.370;4.832;2023-03-04T01:33:09;102730.91;;;6.62;100.00
69667;BME280;66534;52.370;4.832;2023-03-04T01:33:39;102730.84;;;6.36;100.00
69667;BME280;66534;52.370;4.832;2023-03-04T01:34:10;102733.25;;;5.97;100.00
69667;BME280;66534;52.370;4.832;2023-03-04T01:34:40;102733.25;;;5.93;100.00
69667;BME280;66534;52.370;4.832;2023-03-04T01:35:11;102729.88;;;6.06;100.00
69667;BME280;66534;52.370;4.832;2023-03-04T01:35:42;102734.22;;;6.13;100.00
69667;BME280;66534;52.370;4.832;2023-03-04T01:36:12;102722.13;;;6.31;100.00
69667;BME280;66534;52.370;4.832;2023-03-04T01:36:43;102726.47;;;6.29;100.00
69667;BME280;66534;52.370;4.832;2023-03-04T01:37:13;102725.63;;;6.33;100.00
69667;BME280;66534;52.370;4.832;2023-03-04T01:37:44;102728.16;;;6.17;100.00
69667;BME280;66534;52.370;4.832;2023-03-04T01:38:14;102729.91;;;6.21;100.00
69667;BME280;66534;52.370;4.832;2023-03-04T01:38:45;102731.63;;;6.22;100.00
69667;BME280;66534;52.370;4.832;2023-03-04T01:39:15;102719.53;;;6.38;100.00
69667;BME280;66534;52.370;4.832;2023-03-04T01:39:46;102721.31;;;6.53;100.00
69667;BME280;66534;52.370;4.832;2023-03-04T01:40:16;102717.84;;;6.59;100.00
69667;BME280;66534;52.370;4.832;2023-03-04T01:40:46;102725.69;;;6.68;100.00
69667;BME280;66534;52.370;4.832;2023-03-04T01:41:20;102724.84;;;6.66;100.00
69667;BME280;66534;52.370;4.832;2023-03-04T01:41:56;102719.59;;;6.64;100.00
69667;BME280;66534;52.370;4.832;2023-03-04T01:42:29;102716.13;;;6.62;100.00
69667;BME280;66534;52.370;4.832;2023-03-04T01:43:02;102718.72;;;6.48;100.00
69667;BME280;66534;52.370;4.832;2023-03-04T01:43:33;102715.25;;;6.53;100.00
69667;BME280;66534;52.370;4.832;2023-03-04T01:44:05;102722.19;;;6.54;100.00
69667;BME280;66534;52.370;4.832;2023-03-04T01:44:38;102717.91;;;6.74;100.00
69667;BME280;66534;52.370;4.832;2023-03-04T01:45:12;102722.25;;;6.86;100.00
69667;BME280;66534;52.370;4.832;2023-03-04T01:45:45;102715.28;;;6.85;100.00
69667;BME280;66534;52.370;4.832;2023-03-04T01:46:17;102716.13;;;6.64;100.00
69667;BME280;66534;52.370;4.832;2023-03-04T01:46:50;102710.88;;;6.56;100.00
69667;BME280;66534;52.370;4.832;2023-03-04T01:47:23;102714.34;;;6.46;100.00
69667;BME280;66534;52.370;4.832;2023-03-04T01:47:58;102712.59;;;6.43;100.00
69667;BME280;66534;52.370;4.832;2023-03-04T01:48:35;102714.34;;;6.44;100.00
69667;BME280;66534;52.370;4.832;2023-03-04T01:49:08;102718.72;;;6.58;100.00
69667;BME280;66534;52.370;4.832;2023-03-04T01:49:41;102714.38;;;6.63;100.00
69667;BME280;66534;52.370;4.832;2023-03-04T01:50:16;102710.94;;;6.78;100.00
69667;BME280;66534;52.370;4.832;2023-03-04T01:50:50;102709.19;;;6.81;100.00
69667;BME280;66534;52.370;4.832;2023-03-04T01:51:21;102714.41;;;6.70;100.00
69667;BME280;66534;52.370;4.832;2023-03-04T01:51:53;102710.06;;;6.76;100.00
69667;BME280;66534;52.370;4.832;2023-03-04T01:52:23;102710.91;;;6.62;100.00
69667;BME280;66534;52.370;4.832;2023-03-04T01:52:56;102707.44;;;6.62;100.00
69667;BME280;66534;52.370;4.832;2023-03-04T01:53:27;102709.19;;;6.67;100.00
69667;BME280;66534;52.370;4.832;2023-03-04T01:53:59;102708.31;;;6.76;100.00
69667;BME280;66534;52.370;4.832;2023-03-04T01:54:29;102709.22;;;6.99;100.00
69667;BME280;66534;52.370;4.832;2023-03-04T01:55:00;102707.47;;;6.94;100.00
69667;BME280;66534;52.370;4.832;2023-03-04T01:55:30;102706.59;;;6.98;100.00
69667;BME280;66534;52.370;4.832;2023-03-04T01:56:43;102699.63;;;6.88;100.00
69667;BME280;66534;52.370;4.832;2023-03-04T01:56:57;102708.31;;;6.74;100.00
69667;BME280;66534;52.370;4.832;2023-03-04T01:57:32;102711.81;;;6.69;100.00
69667;BME280;66534;52.370;4.832;2023-03-04T01:58:04;102703.09;;;6.68;100.00
69667;BME280;66534;52.370;4.832;2023-03-04T01:58:34;102711.78;;;6.70;100.00
69667;BME280;66534;52.370;4.832;2023-03-04T01:59:46;102707.47;;;6.79;100.00
69667;BME280;66534;52.370;4.832;2023-03-04T02:00:50;102699.66;;;7.08;100.00
69667;BME280;66534;52.370;4.832;2023-03-04T02:01:21;102703.13;;;6.93;100.00
69667;BME280;66534;52.370;4.832;2023-03-04T02:01:53;102703.97;;;7.10;100.00
69667;BME280;66534;52.370;4.832;2023-03-04T02:02:25;102697.03;;;7.05;100.00
69667;BME280;66534;52.370;4.832;2023-03-04T02:03:09;102702.25;;;6.88;100.00
69667;BME280;66534;52.370;4.832;2023-03-04T02:03:41;102710.94;;;6.81;100.00
69667;BME280;66534;52.370;4.832;2023-03-04T02:04:12;102704.84;;;6.88;100.00
69667;BME280;66534;52.370;4.832;2023-03-04T02:04:44;102699.59;;;6.60;100.00
69667;BME280;66534;52.370;4.832;2023-03-04T02:05:14;102701.34;;;6.60;100.00
69667;BME280;66534;52.370;4.832;2023-03-04T02:05:46;102700.47;;;6.55;100.00
69667;BME280;66534;52.370;4.832;2023-03-04T02:06:18;102706.53;;;6.47;100.00
69667;BME280;66534;52.370;4.832;2023-03-04T02:06:49;102693.53;;;6.58;100.00
69667;BME280;66534;52.370;4.832;2023-03-04T02:07:20;102694.41;;;6.69;100.00
69667;BME280;66534;52.370;4.832;2023-03-04T02:07:51;102694.41;;;6.74;100.00
69667;BME280;66534;52.370;4.832;2023-03-04T02:08:24;102695.28;;;6.67;100.00
69667;BME280;66534;52.370;4.832;2023-03-04T02:08:54;102684.81;;;6.48;100.00
69667;BME280;66534;52.370;4.832;2023-03-04T02:09:25;102688.28;;;6.49;100.00
69667;BME280;66534;52.370;4.832;2023-03-04T02:09:56;102690.03;;;6.68;100.00
69667;BME280;66534;52.370;4.832;2023-03-04T02:10:26;102692.69;;;6.78;100.00
69667;BME280;66534;52.370;4.832;2023-03-04T02:10:57;102685.72;;;6.83;100.00
69667;BME280;66534;52.370;4.832;2023-03-04T02:11:28;102690.94;;;6.70;100.00
69667;BME280;66534;52.370;4.832;2023-03-04T02:11:58;102690.91;;;6.63;100.00
69667;BME280;66534;52.370;4.832;2023-03-04T02:12:29;102681.38;;;6.65;100.00
69667;BME280;66534;52.370;4.832;2023-03-04T02:12:59;102685.72;;;6.70;100.00
69667;BME280;66534;52.370;4.832;2023-03-04T02:13:31;102680.50;;;6.78;100.00
69667;BME280;66534;52.370;4.832;2023-03-04T02:14:03;102683.97;;;6.77;100.00
69667;BME280;66534;52.370;4.832;2023-03-04T02:14:34;102687.44;;;6.61;100.00
69667;BME280;66534;52.370;4.832;2023-03-04T02:15:05;102682.22;;;6.50;100.00
69667;BME280;66534;52.370;4.832;2023-03-04T02:15:36;102690.91;;;6.52;100.00
69667;BME280;66534;52.370;4.832;2023-03-04T02:16:07;102680.44;;;6.47;100.00
69667;BME280;66534;52.370;4.832;2023-03-04T02:16:38;102681.38;;;6.65;100.00
69667;BME280;66534;52.370;4.832;2023-03-04T02:17:10;102683.97;;;6.76;100.00
69667;BME280;66534;52.370;4.832;2023-03-04T02:17:41;102676.97;;;6.42;100.00
69667;BME280;66534;52.370;4.832;2023-03-04T02:18:19;102683.06;;;6.43;100.00
69667;BME280;66534;52.370;4.832;2023-03-04T02:18:52;102683.00;;;6.20;100.00
69667;BME280;66534;52.370;4.832;2023-03-04T02:19:27;102679.53;;;6.24;100.00
69667;BME280;66534;52.370;4.832;2023-03-04T02:21:29;102683.06;;;6.55;100.00
69667;BME280;66534;52.370;4.832;2023-03-04T02:22:02;102685.69;;;6.55;100.00
69667;BME280;66534;52.370;4.832;2023-03-04T02:22:34;102675.28;;;6.52;100.00
69667;BME280;66534;52.370;4.832;2023-03-04T02:24:11;102680.47;;;6.63;100.00
69667;BME280;66534;52.370;4.832;2023-03-04T02:24:32;102673.53;;;6.49;100.00
69667;BME280;66534;52.370;4.832;2023-03-04T02:25:12;102676.09;;;6.43;100.00
69667;BME280;66534;52.370;4.832;2023-03-04T02:26:44;102673.53;;;6.66;100.00
69667;BME280;66534;52.370;4.832;2023-03-04T02:27:15;102667.47;;;6.61;100.00
69667;BME280;66534;52.370;4.832;2023-03-04T02:27:46;102677.88;;;6.57;100.00
69667;BME280;66534;52.370;4.832;2023-03-04T02:28:16;102671.75;;;6.47;100.00
69667;BME280;66534;52.370;4.832;2023-03-04T02:28:49;102674.38;;;6.41;100.00
69667;BME280;66534;52.370;4.832;2023-03-04T02:29:21;102670.88;;;6.34;100.00
69667;BME280;66534;52.370;4.832;2023-03-04T02:29:51;102671.75;;;6.36;100.00
69667;BME280;66534;52.370;4.832;2023-03-04T02:30:22;102670.03;;;6.54;100.00
69667;BME280;66534;52.370;4.832;2023-03-04T02:30:54;102663.97;;;6.58;100.00
69667;BME280;66534;52.370;4.832;2023-03-04T02:31:40;102661.34;;;6.64;100.00
69667;BME280;66534;52.370;4.832;2023-03-04T02:32:13;102658.72;;;6.52;100.00
69667;BME280;66534;52.370;4.832;2023-03-04T02:32:45;102663.94;;;6.41;100.00
69667;BME280;66534;52.370;4.832;2023-03-04T02:33:16;102665.66;;;6.23;100.00
69667;BME280;66534;52.370;4.832;2023-03-04T02:33:48;102654.34;;;6.26;100.00
69667;BME280;66534;52.370;4.832;2023-03-04T02:34:20;102664.75;;;6.18;100.00
69667;BME280;66534;52.370;4.832;2023-03-04T02:35:02;102656.03;;;6.10;100.00
69667;BME280;66534;52.370;4.832;2023-03-04T02:35:32;102663.84;;;6.07;100.00
69667;BME280;66534;52.370;4.832;2023-03-04T02:36:03;102654.31;;;6.18;100.00
69667;BME280;66534;52.370;4.832;2023-03-04T02:36:34;102656.91;;;6.09;100.00
69667;BME280;66534;52.370;4.832;2023-03-04T02:37:08;102654.31;;;6.12;100.00
69667;BME280;66534;52.370;4.832;2023-03-04T02:37:40;102657.78;;;6.08;100.00
69667;BME280;66534;52.370;4.832;2023-03-04T02:38:10;102657.75;;;6.05;100.00
69667;BME280;66534;52.370;4.832;2023-03-04T02:38:41;102652.59;;;6.19;100.00
69667;BME280;66534;52.370;4.832;2023-03-04T02:39:54;102650.84;;;6.15;100.00
69667;BME280;66534;52.370;4.832;2023-03-04T02:40:31;102650.84;;;6.16;100.00
69667;BME280;66534;52.370;4.832;2023-03-04T02:41:03;102649.09;;;6.11;100.00
69667;BME280;66534;52.370;4.832;2023-03-04T02:41:34;102652.53;;;6.01;100.00
69667;BME280;66534;52.370;4.832;2023-03-04T02:42:05;102654.31;;;6.08;100.00
69667;BME280;66534;52.370;4.832;2023-03-04T02:42:37;102649.97;;;6.07;100.00
69667;BME280;66534;52.370;4.832;2023-03-04T02:43:08;102650.81;;;6.09;100.00
69667;BME280;66534;52.370;4.832;2023-03-04T02:43:42;102654.31;;;6.17;100.00
69667;BME280;66534;52.370;4.832;2023-03-04T02:44:18;102656.06;;;6.18;100.00
69667;BME280;66534;52.370;4.832;2023-03-04T02:44:58;102647.34;;;6.14;100.00
69667;BME280;66534;52.370;4.832;2023-03-04T02:45:30;102648.28;;;6.27;100.00
69667;BME280;66534;52.370;4.832;2023-03-04T02:46:05;102650.00;;;6.22;100.00
69667;BME280;66534;52.370;4.832;2023-03-04T02:46:35;102647.38;;;6.13;100.00
69667;BME280;66534;52.370;4.832;2023-03-04T02:47:06;102651.72;;;6.17;100.00
69667;BME280;66534;52.370;4.832;2023-03-04T02:47:39;102645.59;;;6.03;100.00
69667;BME280;66534;52.370;4.832;2023-03-04T02:48:10;102647.34;;;6.02;100.00
69667;BME280;66534;52.370;4.832;2023-03-04T02:48:41;102649.13;;;6.26;100.00
69667;BME280;66534;52.370;4.832;2023-03-04T02:49:11;102652.66;;;6.48;100.00